createdAt,value
2019-05-07T00:01:54.983Z,67.31
2019-05-07T00:04:25.272Z,66.65
2019-05-07T00:06:56.674Z,66.03
2019-05-07T00:09:29.061Z,65.81
2019-05-07T00:12:04.699Z,65.89
2019-05-07T00:14:34.585Z,65.94
2019-05-07T00:17:06.142Z,66.07
2019-05-07T00:19:37.575Z,66.53
2019-05-07T00:22:08.949Z,66.83
2019-05-07T00:24:42.436Z,67.06
2019-05-07T00:27:13.497Z,67.06
2019-05-07T00:29:44.863Z,67.36
2019-05-07T00:32:16.223Z,67.12
2019-05-07T00:34:54.291Z,67.11
2019-05-07T00:37:27.037Z,67.08
2019-05-07T00:39:59.953Z,67.10
2019-05-07T00:42:32.897Z,67.29
2019-05-07T00:45:23.904Z,67.53
2019-05-07T00:47:55.168Z,67.76
2019-05-07T00:50:28.092Z,67.67
2019-05-07T00:52:59.484Z,67.18
2019-05-07T00:55:32.585Z,66.46
2019-05-07T00:58:04.182Z,66.91
2019-05-07T01:00:35.558Z,67.39
2019-05-07T01:03:06.952Z,67.59
2019-05-07T01:05:39.284Z,67.61
2019-05-07T01:08:12.996Z,67.38
2019-05-07T01:10:43.862Z,67.38
2019-05-07T01:13:15.235Z,67.48
2019-05-07T01:15:46.637Z,67.72
2019-05-07T01:18:18.042Z,68.04
2019-05-07T01:20:49.439Z,67.76
2019-05-07T01:23:22.914Z,67.42
2019-05-07T01:25:53.837Z,66.98
2019-05-07T01:28:25.316Z,66.86
2019-05-07T01:30:56.755Z,66.86
2019-05-07T01:33:44.767Z,67.11
2019-05-07T01:36:17.633Z,67.14
2019-05-07T01:38:49.023Z,67.15
2019-05-07T01:41:20.403Z,67.26
2019-05-07T01:43:52.423Z,67.51
2019-05-07T01:46:24.797Z,67.92
2019-05-07T01:48:57.559Z,67.87
2019-05-07T01:51:29.195Z,67.78
2019-05-07T01:54:02.195Z,67.96
2019-05-07T01:56:33.679Z,68.24
2019-05-07T01:59:05.111Z,68.49
2019-05-07T02:01:36.431Z,68.47
2019-05-07T02:04:15.556Z,68.44
2019-05-07T02:07:06.639Z,68.62
2019-05-07T02:09:39.635Z,68.95
2019-05-07T02:12:13.207Z,69.22
2019-05-07T02:14:44.705Z,69.29
2019-05-07T02:17:17.183Z,69.37
2019-05-07T02:19:48.611Z,69.53
2019-05-07T02:22:22.712Z,69.71
2019-05-07T02:24:54.334Z,69.88
2019-05-07T02:27:25.717Z,69.97
2019-05-07T02:29:57.102Z,70.04
2019-05-07T02:32:28.519Z,70.11
2019-05-07T02:34:59.873Z,70.25
2019-05-07T02:37:41.847Z,70.11
2019-05-07T02:40:14.201Z,70.05
2019-05-07T02:42:44.536Z,70.16
2019-05-07T02:45:35.607Z,70.12
2019-05-07T02:48:07.018Z,69.93
2019-05-07T02:50:49.247Z,69.97
2019-05-07T02:53:22.844Z,70.24
2019-05-07T02:55:55.984Z,70.24
2019-05-07T02:58:27.336Z,70.04
2019-05-07T03:00:58.768Z,70.00
2019-05-07T03:03:33.217Z,70.08
2019-05-07T03:06:03.298Z,70.37
2019-05-07T03:08:34.848Z,70.38
2019-05-07T03:11:06.199Z,70.41
2019-05-07T03:13:37.551Z,70.21
2019-05-07T03:16:08.941Z,69.64
2019-05-07T03:18:43.523Z,69.34
2019-05-07T03:21:15.013Z,69.30
2019-05-07T03:23:53.875Z,69.16
2019-05-07T03:26:26.758Z,69.38
2019-05-07T03:28:59.817Z,69.57
2019-05-07T03:31:36.087Z,69.57
2019-05-07T03:34:07.609Z,69.56
2019-05-07T03:36:46.677Z,69.51
2019-05-07T03:39:14.634Z,69.59
2019-05-07T03:41:46.399Z,69.65
2019-05-07T03:44:35.322Z,69.75
2019-05-07T03:47:17.423Z,70.13
2019-05-07T03:49:49.655Z,70.35
2019-05-07T03:52:24.447Z,70.23
2019-05-07T03:54:56.168Z,70.04
2019-05-07T03:57:26.979Z,69.96
2019-05-07T03:59:58.039Z,69.94
2019-05-07T04:02:32.888Z,69.61
2019-05-07T04:05:04.388Z,69.35
2019-05-07T04:07:35.570Z,69.36
2019-05-07T04:10:10.014Z,69.19
2019-05-07T04:12:44.305Z,68.88
2019-05-07T04:15:19.154Z,68.91
2019-05-07T04:17:49.158Z,68.80
2019-05-07T04:20:23.664Z,68.61
2019-05-07T04:22:53.890Z,68.52
2019-05-07T04:25:43.666Z,68.28
2019-05-07T04:28:16.621Z,68.14
2019-05-07T04:30:48.115Z,68.20
2019-05-07T04:33:20.409Z,68.29
2019-05-07T04:35:53.790Z,68.22
2019-05-07T04:38:26.220Z,67.98
2019-05-07T04:40:57.597Z,68.10
2019-05-07T04:43:28.919Z,67.99
2019-05-07T04:46:03.179Z,67.85
2019-05-07T04:48:34.361Z,67.69
2019-05-07T04:51:07.469Z,67.45
2019-05-07T04:53:38.936Z,67.37
2019-05-07T04:56:23.813Z,67.45
2019-05-07T04:58:55.413Z,67.45
2019-05-07T05:01:27.778Z,67.32
2019-05-07T05:03:58.947Z,67.40
2019-05-07T05:06:32.731Z,67.32
2019-05-07T05:09:05.054Z,67.27
2019-05-07T05:11:38.046Z,66.91
2019-05-07T05:14:09.576Z,66.75
2019-05-07T05:16:52.457Z,67.01
2019-05-07T05:19:24.204Z,67.28
2019-05-07T05:22:03.227Z,67.46
2019-05-07T05:24:36.553Z,66.73
2019-05-07T05:27:08.309Z,66.14
2019-05-07T05:32:46.062Z,65.99
2019-05-07T05:35:22.458Z,66.14
2019-05-07T05:38:02.992Z,66.15
2019-05-07T05:40:34.382Z,66.12
2019-05-07T05:43:27.195Z,66.01
2019-05-07T05:46:06.175Z,66.05
2019-05-07T05:48:37.590Z,66.03
2019-05-07T05:51:11.885Z,65.70
2019-05-07T05:53:44.992Z,65.75
2019-05-07T05:56:22.893Z,65.59
2019-05-07T05:58:58.382Z,65.34
2019-05-07T06:01:42.672Z,65.47
2019-05-07T06:04:24.252Z,65.39
2019-05-07T06:07:08.820Z,65.05
2019-05-07T06:09:32.752Z,64.66
2019-05-07T06:12:09.011Z,64.76
2019-05-07T06:14:42.514Z,64.33
2019-05-07T06:17:15.659Z,63.92
2019-05-07T06:20:04.636Z,63.01
2019-05-07T06:22:46.520Z,62.45
2019-05-07T06:25:19.465Z,61.88
2019-05-07T06:28:02.046Z,61.35
2019-05-07T06:30:42.004Z,61.21
2019-05-07T06:33:13.549Z,61.61
2019-05-07T06:35:44.302Z,61.00
2019-05-07T06:38:15.742Z,60.87
2019-05-07T06:40:52.086Z,60.26
2019-05-07T06:43:26.764Z,59.97
2019-05-07T06:46:01.874Z,60.04
2019-05-07T06:48:42.533Z,59.61
2019-05-07T06:51:17.648Z,57.74
2019-05-07T06:53:51.727Z,58.05
2019-05-07T06:56:23.126Z,56.96
2019-05-07T06:59:06.384Z,56.91
2019-05-07T07:01:48.154Z,56.65
2019-05-07T07:04:22.516Z,56.25
2019-05-07T07:07:26.654Z,56.31
2019-05-07T07:09:52.967Z,55.81
2019-05-07T07:12:27.376Z,56.45
2019-05-07T07:15:03.397Z,56.06
2019-05-07T18:06:52.216Z,62.72
2019-05-07T18:16:02.993Z,62.19
2019-05-07T18:18:34.655Z,62.07
2019-05-07T18:21:05.970Z,61.91
2019-05-07T18:23:37.274Z,61.81
2019-05-07T18:26:08.659Z,61.83
2019-05-07T18:28:41.703Z,62.01
2019-05-07T18:31:15.762Z,61.97
2019-05-07T18:33:47.750Z,62.35
2019-05-07T18:36:19.115Z,62.01
2019-05-07T18:38:52.697Z,61.65
2019-05-07T18:41:23.569Z,61.50
2019-05-07T18:43:54.908Z,61.38
2019-05-07T18:46:26.198Z,61.67
2019-05-07T18:48:57.519Z,61.63
2019-05-07T18:51:28.893Z,61.38
2019-05-07T18:54:02.302Z,61.35
2019-05-07T18:56:34.543Z,61.37
2019-05-07T18:59:07.272Z,61.62
2019-05-07T19:01:42.196Z,61.99
2019-05-07T19:04:13.303Z,62.16
2019-05-07T19:06:44.527Z,62.27
2019-05-07T19:09:15.976Z,62.53
2019-05-07T19:11:47.348Z,62.76
2019-05-07T19:14:18.773Z,62.86
2019-05-07T19:16:52.412Z,63.16
2019-05-07T19:19:23.129Z,63.34
2019-05-07T19:21:55.963Z,63.39
2019-05-07T19:24:40.825Z,63.24
2019-05-07T19:27:02.218Z,63.44
2019-05-07T19:29:34.202Z,63.67
2019-05-07T19:32:07.009Z,63.85
2019-05-07T19:34:38.278Z,64.11
2019-05-07T19:37:09.521Z,64.15
2019-05-07T19:39:42.851Z,64.28
2019-05-07T19:42:13.785Z,64.36
2019-05-07T19:44:45.065Z,64.33
2019-05-07T19:47:16.729Z,64.39
2019-05-07T19:49:47.989Z,64.41
2019-05-07T19:52:19.275Z,64.39
2019-05-07T19:54:58.740Z,64.36
2019-05-07T19:57:35.182Z,64.48
2019-05-07T20:00:12.028Z,64.56
2019-05-07T20:02:47.211Z,64.69
2019-05-07T20:05:18.473Z,64.73
2019-05-07T20:07:53.332Z,64.79
2019-05-07T20:10:24.177Z,64.90
2019-05-07T20:12:55.418Z,64.99
2019-05-07T20:15:26.820Z,65.36
2019-05-07T20:17:58.138Z,65.62
2019-05-07T20:20:29.564Z,65.55
2019-05-07T20:23:02.562Z,65.33
2019-05-07T20:25:34.186Z,65.07
2019-05-07T20:28:05.512Z,65.36
2019-05-07T20:30:36.803Z,65.58
2019-05-07T20:33:08.141Z,65.87
2019-05-07T20:35:41.905Z,66.03
2019-05-07T20:38:12.735Z,65.90
2019-05-07T20:40:44.021Z,65.96
2019-05-07T20:43:14.806Z,65.88
2019-05-07T20:45:45.891Z,66.27
2019-05-07T20:48:16.708Z,66.09
2019-05-07T20:50:47.790Z,66.50
2019-05-07T20:53:21.836Z,66.23
2019-05-07T20:55:57.916Z,66.32
2019-05-07T20:58:29.278Z,66.25
2019-05-07T21:01:02.801Z,66.24
2019-05-07T21:03:33.912Z,66.23
2019-05-07T21:06:04.636Z,66.37
2019-05-07T21:08:35.676Z,66.86
2019-05-07T21:11:07.062Z,66.50
2019-05-07T21:13:41.732Z,66.67
2019-05-07T21:16:12.680Z,66.64
2019-05-07T21:18:44.231Z,66.69
2019-05-07T21:21:15.531Z,66.91
2019-05-07T21:23:46.902Z,67.00
2019-05-07T21:26:18.286Z,66.97
2019-05-07T21:28:49.672Z,67.17
2019-05-07T21:31:22.803Z,67.39
2019-05-07T21:33:54.094Z,67.43
2019-05-07T21:36:25.452Z,67.63
2019-05-07T21:38:56.764Z,67.95
2019-05-07T21:41:28.129Z,68.04
2019-05-07T21:43:59.406Z,68.10
2019-05-07T21:46:32.807Z,67.98
2019-05-07T21:49:03.797Z,67.98
2019-05-07T21:51:35.203Z,68.24
2019-05-07T21:54:08.161Z,68.12
2019-05-07T21:56:54.591Z,67.99
2019-05-07T21:59:27.643Z,67.97
2019-05-07T22:02:03.554Z,68.02
2019-05-07T22:04:34.893Z,68.23
2019-05-07T22:07:06.266Z,68.06
2019-05-07T22:09:37.617Z,68.23
2019-05-07T22:12:09.092Z,68.30
2019-05-07T22:14:39.787Z,68.32
2019-05-07T22:17:12.752Z,68.67
2019-05-07T22:19:44.189Z,68.39
2019-05-07T22:22:15.557Z,68.54
2019-05-07T22:24:49.424Z,68.64
2019-05-07T22:27:22.440Z,68.73
2019-05-07T22:29:53.827Z,68.60
2019-05-07T22:32:32.732Z,68.58
2019-05-07T22:35:06.553Z,68.46
2019-05-07T22:37:39.378Z,68.27
2019-05-07T22:40:15.050Z,68.31
2019-05-07T22:42:47.863Z,68.34
2019-05-07T22:45:19.211Z,68.57
2019-05-07T22:47:52.518Z,68.66
2019-05-07T22:50:23.659Z,68.63
2019-05-07T22:52:55.021Z,68.68
2019-05-07T22:55:26.374Z,68.87
2019-05-07T22:58:03.290Z,68.89
2019-05-07T23:00:36.203Z,68.80
2019-05-07T23:03:07.696Z,68.69
2019-05-07T23:05:39.091Z,69.14
2019-05-07T23:08:12.659Z,69.41
2019-05-07T23:10:45.017Z,69.39
2019-05-07T23:13:18.154Z,69.49
2019-05-07T23:15:53.850Z,69.67
2019-05-07T23:18:28.891Z,69.75
2019-05-07T23:21:00.253Z,69.68
2019-05-07T23:23:32.545Z,69.68
2019-05-07T23:26:03.960Z,69.96
2019-05-07T23:28:35.246Z,70.04
2019-05-07T23:31:07.559Z,70.00
2019-05-07T23:33:38.933Z,70.02
2019-05-07T23:36:10.260Z,70.25
2019-05-07T23:38:42.630Z,70.25
2019-05-07T23:41:22.300Z,70.05
2019-05-07T23:44:13.548Z,70.28
2019-05-07T23:46:45.208Z,70.53
2019-05-07T23:49:17.225Z,70.46
2019-05-07T23:51:48.578Z,70.41
2019-05-07T23:54:23.009Z,70.23
2019-05-07T23:57:05.935Z,70.09
2019-05-07T23:59:28.190Z,70.20
